sensor_id;sensor_type;location;lat;lon;timestamp;temperature;humidity
20957;DHT22;10637;47.970;7.830;2024-02-14T00:01:30;7.70;99.90
20957;DHT22;10637;47.970;7.830;2024-02-14T00:06:35;7.60;99.90
20957;DHT22;10637;47.970;7.830;2024-02-14T00:11:37;7.60;99.90
20957;DHT22;10637;47.970;7.830;2024-02-14T00:16:39;7.60;99.90
20957;DHT22;10637;47.970;7.830;2024-02-14T00:21:41;7.70;99.90
20957;DHT22;10637;47.970;7.830;2024-02-14T00:26:43;7.80;99.90
20957;DHT22;10637;47.970;7.830;2024-02-14T00:31:44;7.90;99.90
20957;DHT22;10637;47.970;7.830;2024-02-14T00:36:46;8.10;99.90
20957;DHT22;10637;47.970;7.830;2024-02-14T00:41:48;8.20;99.90
20957;DHT22;10637;47.970;7.830;2024-02-14T00:46:56;8.30;99.90
20957;DHT22;10637;47.970;7.830;2024-02-14T00:51:58;8.40;99.90
20957;DHT22;10637;47.970;7.830;2024-02-14T00:57:00;8.30;99.90
20957;DHT22;10637;47.970;7.830;2024-02-14T01:02:02;8.30;99.90
20957;DHT22;10637;47.970;7.830;2024-02-14T01:07:04;8.50;99.90
20957;DHT22;10637;47.970;7.830;2024-02-14T01:12:06;8.70;99.90
20957;DHT22;10637;47.970;7.830;2024-02-14T01:17:08;8.80;99.90
20957;DHT22;10637;47.970;7.830;2024-02-14T01:22:10;8.90;99.90
20957;DHT22;10637;47.970;7.830;2024-02-14T01:27:12;9.10;99.90
20957;DHT22;10637;47.970;7.830;2024-02-14T01:32:14;9.30;99.90
20957;DHT22;10637;47.970;7.830;2024-02-14T01:37:16;9.40;99.90
20957;DHT22;10637;47.970;7.830;2024-02-14T01:42:18;9.50;99.90
20957;DHT22;10637;47.970;7.830;2024-02-14T01:47:20;9.60;99.90
20957;DHT22;10637;47.970;7.830;2024-02-14T01:52:22;9.60;99.90
20957;DHT22;10637;47.970;7.830;2024-02-14T01:57:24;9.70;99.90
20957;DHT22;10637;47.970;7.830;2024-02-14T02:02:27;9.70;99.90
20957;DHT22;10637;47.970;7.830;2024-02-14T02:07:32;9.90;99.90
20957;DHT22;10637;47.970;7.830;2024-02-14T02:12:34;9.80;99.90
20957;DHT22;10637;47.970;7.830;2024-02-14T02:17:35;9.90;99.90
20957;DHT22;10637;47.970;7.830;2024-02-14T02:22:40;9.90;99.90
20957;DHT22;10637;47.970;7.830;2024-02-14T02:27:43;9.90;99.90
20957;DHT22;10637;47.970;7.830;2024-02-14T02:32:45;10.00;99.90
20957;DHT22;10637;47.970;7.830;2024-02-14T02:37:47;10.20;99.90
20957;DHT22;10637;47.970;7.830;2024-02-14T02:42:52;10.20;99.90
20957;DHT22;10637;47.970;7.830;2024-02-14T02:47:54;10.20;99.90
20957;DHT22;10637;47.970;7.830;2024-02-14T02:52:57;10.30;99.90
20957;DHT22;10637;47.970;7.830;2024-02-14T02:57:59;10.30;99.90
20957;DHT22;10637;47.970;7.830;2024-02-14T03:03:01;10.30;99.90
20957;DHT22;10637;47.970;7.830;2024-02-14T03:08:06;10.30;99.90
20957;DHT22;10637;47.970;7.830;2024-02-14T03:13:09;10.40;99.90
20957;DHT22;10637;47.970;7.830;2024-02-14T03:18:13;10.40;99.90
20957;DHT22;10637;47.970;7.830;2024-02-14T03:23:15;10.50;99.90
20957;DHT22;10637;47.970;7.830;2024-02-14T03:28:17;10.50;99.90
20957;DHT22;10637;47.970;7.830;2024-02-14T03:33:19;10.50;99.90
20957;DHT22;10637;47.970;7.830;2024-02-14T03:38:26;10.50;99.90
20957;DHT22;10637;47.970;7.830;2024-02-14T03:43:28;10.50;99.90
20957;DHT22;10637;47.970;7.830;2024-02-14T03:48:30;10.50;99.90
20957;DHT22;10637;47.970;7.830;2024-02-14T03:53:32;10.50;99.90
20957;DHT22;10637;47.970;7.830;2024-02-14T03:58:34;10.50;99.90
20957;DHT22;10637;47.970;7.830;2024-02-14T04:03:38;10.50;99.90
20957;DHT22;10637;47.970;7.830;2024-02-14T04:08:40;10.60;99.90
20957;DHT22;10637;47.970;7.830;2024-02-14T04:13:42;10.60;99.90
20957;DHT22;10637;47.970;7.830;2024-02-14T04:18:44;10.50;99.90
20957;DHT22;10637;47.970;7.830;2024-02-14T04:23:46;10.60;99.90
20957;DHT22;10637;47.970;7.830;2024-02-14T04:28:47;10.70;99.90
20957;DHT22;10637;47.970;7.830;2024-02-14T04:33:49;10.80;99.90
20957;DHT22;10637;47.970;7.830;2024-02-14T04:38:54;10.80;99.90
20957;DHT22;10637;47.970;7.830;2024-02-14T04:43:57;10.90;99.90
20957;DHT22;10637;47.970;7.830;2024-02-14T04:48:59;10.90;99.90
20957;DHT22;10637;47.970;7.830;2024-02-14T04:54:02;11.00;99.90
20957;DHT22;10637;47.970;7.830;2024-02-14T04:59:04;11.00;99.90
20957;DHT22;10637;47.970;7.830;2024-02-14T05:04:07;11.00;99.90
20957;DHT22;10637;47.970;7.830;2024-02-14T05:09:08;11.00;99.90
20957;DHT22;10637;47.970;7.830;2024-02-14T05:14:13;11.20;99.90
20957;DHT22;10637;47.970;7.830;2024-02-14T05:19:15;11.30;99.90
20957;DHT22;10637;47.970;7.830;2024-02-14T05:24:17;11.30;99.90
20957;DHT22;10637;47.970;7.830;2024-02-14T05:29:19;11.40;99.90
20957;DHT22;10637;47.970;7.830;2024-02-14T05:34:22;11.40;99.90
20957;DHT22;10637;47.970;7.830;2024-02-14T05:39:24;11.40;99.90
20957;DHT22;10637;47.970;7.830;2024-02-14T05:44:25;11.50;99.90
20957;DHT22;10637;47.970;7.830;2024-02-14T05:49:29;11.50;99.90
20957;DHT22;10637;47.970;7.830;2024-02-14T05:54:31;11.50;99.90
20957;DHT22;10637;47.970;7.830;2024-02-14T05:59:33;11.50;99.90
20957;DHT22;10637;47.970;7.830;2024-02-14T06:04:35;11.50;99.90
20957;DHT22;10637;47.970;7.830;2024-02-14T06:09:37;11.50;99.90
20957;DHT22;10637;47.970;7.830;2024-02-14T06:14:40;11.60;99.90
20957;DHT22;10637;47.970;7.830;2024-02-14T06:19:41;11.60;99.90
20957;DHT22;10637;47.970;7.830;2024-02-14T06:24:43;11.60;99.90
20957;DHT22;10637;47.970;7.830;2024-02-14T06:29:45;11.60;99.90
20957;DHT22;10637;47.970;7.830;2024-02-14T06:34:47;11.60;99.90
20957;DHT22;10637;47.970;7.830;2024-02-14T06:39:49;11.60;99.90
20957;DHT22;10637;47.970;7.830;2024-02-14T06:44:51;11.60;99.90
20957;DHT22;10637;47.970;7.830;2024-02-14T06:49:53;11.60;99.90
20957;DHT22;10637;47.970;7.830;2024-02-14T06:54:54;11.60;99.90
20957;DHT22;10637;47.970;7.830;2024-02-14T06:59:57;11.60;99.90
20957;DHT22;10637;47.970;7.830;2024-02-14T07:04:58;11.60;99.90
20957;DHT22;10637;47.970;7.830;2024-02-14T07:10:00;11.60;99.90
20957;DHT22;10637;47.970;7.830;2024-02-14T07:15:04;11.60;99.90
20957;DHT22;10637;47.970;7.830;2024-02-14T07:20:07;11.70;99.90
20957;DHT22;10637;47.970;7.830;2024-02-14T07:25:10;11.80;99.90
20957;DHT22;10637;47.970;7.830;2024-02-14T07:30:13;11.80;99.90
20957;DHT22;10637;47.970;7.830;2024-02-14T07:35:15;11.80;99.90
20957;DHT22;10637;47.970;7.830;2024-02-14T07:40:16;11.80;99.90
20957;DHT22;10637;47.970;7.830;2024-02-14T07:45:19;11.70;99.90
20957;DHT22;10637;47.970;7.830;2024-02-14T07:50:21;11.60;99.90
20957;DHT22;10637;47.970;7.830;2024-02-14T07:55:23;11.60;99.90
20957;DHT22;10637;47.970;7.830;2024-02-14T08:00:25;11.60;99.90
20957;DHT22;10637;47.970;7.830;2024-02-14T08:05:27;11.60;99.90
20957;DHT22;10637;47.970;7.830;2024-02-14T08:10:31;11.50;99.90
20957;DHT22;10637;47.970;7.830;2024-02-14T08:15:32;11.50;99.90
20957;DHT22;10637;47.970;7.830;2024-02-14T08:20:34;11.40;99.90
20957;DHT22;10637;47.970;7.830;2024-02-14T08:25:36;11.50;99.90
20957;DHT22;10637;47.970;7.830;2024-02-14T08:30:38;11.50;99.90
20957;DHT22;10637;47.970;7.830;2024-02-14T08:35:40;11.60;99.90
20957;DHT22;10637;47.970;7.830;2024-02-14T08:40:44;11.60;99.90
20957;DHT22;10637;47.970;7.830;2024-02-14T08:45:46;11.60;99.90
20957;DHT22;10637;47.970;7.830;2024-02-14T08:50:48;11.50;99.90
20957;DHT22;10637;47.970;7.830;2024-02-14T08:55:50;11.30;99.90
20957;DHT22;10637;47.970;7.830;2024-02-14T09:00:52;11.20;99.90
20957;DHT22;10637;47.970;7.830;2024-02-14T09:06:09;11.00;99.90
20957;DHT22;10637;47.970;7.830;2024-02-14T09:11:11;10.90;99.90
20957;DHT22;10637;47.970;7.830;2024-02-14T09:16:14;10.80;99.90
20957;DHT22;10637;47.970;7.830;2024-02-14T09:21:17;11.00;99.90
20957;DHT22;10637;47.970;7.830;2024-02-14T09:26:20;11.20;99.90
20957;DHT22;10637;47.970;7.830;2024-02-14T09:31:22;11.20;99.90
20957;DHT22;10637;47.970;7.830;2024-02-14T09:36:24;11.40;99.90
20957;DHT22;10637;47.970;7.830;2024-02-14T09:41:31;11.40;99.90
20957;DHT22;10637;47.970;7.830;2024-02-14T09:46:38;11.50;99.90
20957;DHT22;10637;47.970;7.830;2024-02-14T09:51:43;11.70;99.90
20957;DHT22;10637;47.970;7.830;2024-02-14T09:56:52;11.80;99.90
20957;DHT22;10637;47.970;7.830;2024-02-14T10:01:56;12.00;99.90
20957;DHT22;10637;47.970;7.830;2024-02-14T10:06:58;12.00;99.90
20957;DHT22;10637;47.970;7.830;2024-02-14T10:12:00;12.10;99.90
20957;DHT22;10637;47.970;7.830;2024-02-14T10:17:04;12.20;99.90
20957;DHT22;10637;47.970;7.830;2024-02-14T10:22:06;12.30;99.90
20957;DHT22;10637;47.970;7.830;2024-02-14T10:27:11;12.80;99.90
20957;DHT22;10637;47.970;7.830;2024-02-14T10:32:15;12.90;99.90
20957;DHT22;10637;47.970;7.830;2024-02-14T10:37:18;13.00;99.90
20957;DHT22;10637;47.970;7.830;2024-02-14T10:42:22;13.10;99.90
20957;DHT22;10637;47.970;7.830;2024-02-14T10:47:29;13.10;99.90
20957;DHT22;10637;47.970;7.830;2024-02-14T10:52:33;13.20;99.90
20957;DHT22;10637;47.970;7.830;2024-02-14T10:57:36;13.20;99.90
20957;DHT22;10637;47.970;7.830;2024-02-14T11:02:38;13.60;99.90
20957;DHT22;10637;47.970;7.830;2024-02-14T11:07:45;14.00;99.90
20957;DHT22;10637;47.970;7.830;2024-02-14T11:12:54;13.60;99.90
20957;DHT22;10637;47.970;7.830;2024-02-14T11:18:04;13.70;99.90
20957;DHT22;10637;47.970;7.830;2024-02-14T11:23:07;13.80;99.90
20957;DHT22;10637;47.970;7.830;2024-02-14T11:28:17;14.00;99.90
20957;DHT22;10637;47.970;7.830;2024-02-14T11:33:23;13.80;99.90
20957;DHT22;10637;47.970;7.830;2024-02-14T11:38:26;13.70;99.90
20957;DHT22;10637;47.970;7.830;2024-02-14T11:43:28;13.60;99.90
20957;DHT22;10637;47.970;7.830;2024-02-14T11:48:30;13.70;99.90
20957;DHT22;10637;47.970;7.830;2024-02-14T11:53:33;14.00;99.90
20957;DHT22;10637;47.970;7.830;2024-02-14T11:58:35;14.00;99.90
20957;DHT22;10637;47.970;7.830;2024-02-14T12:03:37;14.40;99.90
20957;DHT22;10637;47.970;7.830;2024-02-14T12:08:40;16.00;99.90
20957;DHT22;10637;47.970;7.830;2024-02-14T12:13:43;15.60;99.90
20957;DHT22;10637;47.970;7.830;2024-02-14T12:18:46;15.20;99.90
20957;DHT22;10637;47.970;7.830;2024-02-14T12:23:48;15.70;99.90
20957;DHT22;10637;47.970;7.830;2024-02-14T12:28:51;15.90;99.90
20957;DHT22;10637;47.970;7.830;2024-02-14T12:33:53;15.50;99.90
20957;DHT22;10637;47.970;7.830;2024-02-14T12:38:57;16.70;99.90
20957;DHT22;10637;47.970;7.830;2024-02-14T12:43:59;16.90;99.90
20957;DHT22;10637;47.970;7.830;2024-02-14T12:49:04;17.80;99.90
20957;DHT22;10637;47.970;7.830;2024-02-14T12:54:06;17.80;99.90
20957;DHT22;10637;47.970;7.830;2024-02-14T12:59:17;16.70;99.90
20957;DHT22;10637;47.970;7.830;2024-02-14T13:04:19;16.60;99.90
20957;DHT22;10637;47.970;7.830;2024-02-14T13:09:22;18.10;99.90
20957;DHT22;10637;47.970;7.830;2024-02-14T13:14:23;18.70;99.90
20957;DHT22;10637;47.970;7.830;2024-02-14T13:19:26;18.40;99.90
20957;DHT22;10637;47.970;7.830;2024-02-14T13:24:28;19.60;99.90
20957;DHT22;10637;47.970;7.830;2024-02-14T13:29:31;17.30;99.90
20957;DHT22;10637;47.970;7.830;2024-02-14T13:34:33;15.90;99.90
20957;DHT22;10637;47.970;7.830;2024-02-14T13:39:35;16.90;99.90
20957;DHT22;10637;47.970;7.830;2024-02-14T13:44:37;17.50;99.90
20957;DHT22;10637;47.970;7.830;2024-02-14T13:49:38;18.50;99.90
20957;DHT22;10637;47.970;7.830;2024-02-14T13:54:41;20.00;99.90
20957;DHT22;10637;47.970;7.830;2024-02-14T13:59:43;19.40;99.90
20957;DHT22;10637;47.970;7.830;2024-02-14T14:04:45;19.80;99.90
20957;DHT22;10637;47.970;7.830;2024-02-14T14:09:46;19.70;99.90
20957;DHT22;10637;47.970;7.830;2024-02-14T14:14:48;17.70;99.90
20957;DHT22;10637;47.970;7.830;2024-02-14T14:19:50;16.40;99.90
20957;DHT22;10637;47.970;7.830;2024-02-14T14:24:52;16.00;99.90
20957;DHT22;10637;47.970;7.830;2024-02-14T14:29:58;15.30;99.90
20957;DHT22;10637;47.970;7.830;2024-02-14T14:35:00;15.00;99.90
20957;DHT22;10637;47.970;7.830;2024-02-14T14:40:02;14.70;99.90
20957;DHT22;10637;47.970;7.830;2024-02-14T14:45:07;14.60;99.90
20957;DHT22;10637;47.970;7.830;2024-02-14T14:50:09;14.30;99.90
20957;DHT22;10637;47.970;7.830;2024-02-14T14:55:11;14.50;99.90
20957;DHT22;10637;47.970;7.830;2024-02-14T15:00:13;14.40;99.90
20957;DHT22;10637;47.970;7.830;2024-02-14T15:05:15;14.40;99.90
20957;DHT22;10637;47.970;7.830;2024-02-14T15:10:17;14.30;99.90
20957;DHT22;10637;47.970;7.830;2024-02-14T15:15:19;14.20;99.90
20957;DHT22;10637;47.970;7.830;2024-02-14T15:20:22;14.20;99.90
20957;DHT22;10637;47.970;7.830;2024-02-14T15:25:24;14.30;99.90
20957;DHT22;10637;47.970;7.830;2024-02-14T15:30:27;14.30;99.90
20957;DHT22;10637;47.970;7.830;2024-02-14T15:35:52;14.20;99.90
20957;DHT22;10637;47.970;7.830;2024-02-14T15:40:55;14.20;99.90
20957;DHT22;10637;47.970;7.830;2024-02-14T15:46:03;14.10;99.90
20957;DHT22;10637;47.970;7.830;2024-02-14T15:51:04;14.10;99.90
20957;DHT22;10637;47.970;7.830;2024-02-14T15:56:06;14.10;99.90
20957;DHT22;10637;47.970;7.830;2024-02-14T16:01:10;14.00;99.90
20957;DHT22;10637;47.970;7.830;2024-02-14T16:06:12;14.00;99.90
20957;DHT22;10637;47.970;7.830;2024-02-14T16:11:14;13.90;99.90
20957;DHT22;10637;47.970;7.830;2024-02-14T16:16:16;14.00;99.90
20957;DHT22;10637;47.970;7.830;2024-02-14T16:21:17;13.90;99.90
20957;DHT22;10637;47.970;7.830;2024-02-14T16:26:19;14.00;99.90
20957;DHT22;10637;47.970;7.830;2024-02-14T16:31:21;13.90;99.90
20957;DHT22;10637;47.970;7.830;2024-02-14T16:36:23;13.90;99.90
20957;DHT22;10637;47.970;7.830;2024-02-14T16:41:25;13.90;99.90
20957;DHT22;10637;47.970;7.830;2024-02-14T16:46:26;13.90;99.90
20957;DHT22;10637;47.970;7.830;2024-02-14T16:51:28;13.90;99.90
20957;DHT22;10637;47.970;7.830;2024-02-14T16:56:30;13.90;99.90
20957;DHT22;10637;47.970;7.830;2024-02-14T17:01:35;13.90;99.90
20957;DHT22;10637;47.970;7.830;2024-02-14T17:06:36;13.90;99.90
20957;DHT22;10637;47.970;7.830;2024-02-14T17:11:38;13.90;99.90
20957;DHT22;10637;47.970;7.830;2024-02-14T17:16:40;13.90;99.90
20957;DHT22;10637;47.970;7.830;2024-02-14T17:21:46;13.80;99.90
20957;DHT22;10637;47.970;7.830;2024-02-14T17:26:47;13.80;99.90
20957;DHT22;10637;47.970;7.830;2024-02-14T17:31:49;13.80;99.90
20957;DHT22;10637;47.970;7.830;2024-02-14T17:36:52;13.80;99.90
20957;DHT22;10637;47.970;7.830;2024-02-14T17:41:54;13.80;99.90
20957;DHT22;10637;47.970;7.830;2024-02-14T17:46:55;13.90;99.90
20957;DHT22;10637;47.970;7.830;2024-02-14T17:51:57;13.90;99.90
20957;DHT22;10637;47.970;7.830;2024-02-14T17:57:00;13.90;99.90
20957;DHT22;10637;47.970;7.830;2024-02-14T18:02:03;13.80;99.90
20957;DHT22;10637;47.970;7.830;2024-02-14T18:07:05;13.80;99.90
20957;DHT22;10637;47.970;7.830;2024-02-14T18:12:07;13.60;99.90
20957;DHT22;10637;47.970;7.830;2024-02-14T18:17:09;13.60;99.90
20957;DHT22;10637;47.970;7.830;2024-02-14T18:22:11;13.60;99.90
20957;DHT22;10637;47.970;7.830;2024-02-14T18:27:12;13.60;99.90
20957;DHT22;10637;47.970;7.830;2024-02-14T18:32:15;13.50;99.90
20957;DHT22;10637;47.970;7.830;2024-02-14T18:37:17;13.50;99.90
20957;DHT22;10637;47.970;7.830;2024-02-14T18:42:19;13.40;99.90
20957;DHT22;10637;47.970;7.830;2024-02-14T18:47:21;13.30;99.90
20957;DHT22;10637;47.970;7.830;2024-02-14T18:52:23;13.20;99.90
20957;DHT22;10637;47.970;7.830;2024-02-14T18:57:24;13.20;99.90
20957;DHT22;10637;47.970;7.830;2024-02-14T19:02:30;13.00;99.90
20957;DHT22;10637;47.970;7.830;2024-02-14T19:07:36;13.10;99.90
20957;DHT22;10637;47.970;7.830;2024-02-14T19:12:38;13.10;99.90
20957;DHT22;10637;47.970;7.830;2024-02-14T19:17:40;12.90;99.90
20957;DHT22;10637;47.970;7.830;2024-02-14T19:22:43;12.70;99.90
20957;DHT22;10637;47.970;7.830;2024-02-14T19:27:46;12.80;99.90
20957;DHT22;10637;47.970;7.830;2024-02-14T19:32:48;12.80;99.90
20957;DHT22;10637;47.970;7.830;2024-02-14T19:37:50;12.70;99.90
20957;DHT22;10637;47.970;7.830;2024-02-14T19:42:52;12.70;99.90
20957;DHT22;10637;47.970;7.830;2024-02-14T19:47:53;12.70;99.90
20957;DHT22;10637;47.970;7.830;2024-02-14T19:52:55;12.70;99.90
20957;DHT22;10637;47.970;7.830;2024-02-14T19:57:57;12.70;99.90
20957;DHT22;10637;47.970;7.830;2024-02-14T20:03:00;12.80;99.90
20957;DHT22;10637;47.970;7.830;2024-02-14T20:08:05;13.00;99.90
20957;DHT22;10637;47.970;7.830;2024-02-14T20:13:07;13.10;99.90
20957;DHT22;10637;47.970;7.830;2024-02-14T20:18:09;13.00;99.90
20957;DHT22;10637;47.970;7.830;2024-02-14T20:23:16;12.80;99.90
20957;DHT22;10637;47.970;7.830;2024-02-14T20:28:19;12.70;99.90
20957;DHT22;10637;47.970;7.830;2024-02-14T20:33:22;12.70;99.90
20957;DHT22;10637;47.970;7.830;2024-02-14T20:38:27;12.60;99.90
20957;DHT22;10637;47.970;7.830;2024-02-14T20:43:29;12.60;99.90
20957;DHT22;10637;47.970;7.830;2024-02-14T20:48:31;12.60;99.90
20957;DHT22;10637;47.970;7.830;2024-02-14T20:53:33;12.30;99.90
20957;DHT22;10637;47.970;7.830;2024-02-14T20:58:36;12.40;99.90
20957;DHT22;10637;47.970;7.830;2024-02-14T21:03:52;12.30;99.90
20957;DHT22;10637;47.970;7.830;2024-02-14T21:08:55;12.20;99.90
20957;DHT22;10637;47.970;7.830;2024-02-14T21:13:57;12.10;99.90
20957;DHT22;10637;47.970;7.830;2024-02-14T21:18:59;12.10;99.90
20957;DHT22;10637;47.970;7.830;2024-02-14T21:24:02;12.00;99.90
20957;DHT22;10637;47.970;7.830;2024-02-14T21:29:04;11.80;99.90
20957;DHT22;10637;47.970;7.830;2024-02-14T21:34:06;11.70;99.90
20957;DHT22;10637;47.970;7.830;2024-02-14T21:39:08;11.80;99.90
20957;DHT22;10637;47.970;7.830;2024-02-14T21:44:12;11.70;99.90
20957;DHT22;10637;47.970;7.830;2024-02-14T21:49:14;11.50;99.90
20957;DHT22;10637;47.970;7.830;2024-02-14T21:54:21;11.50;99.90
20957;DHT22;10637;47.970;7.830;2024-02-14T21:59:23;11.40;99.90
20957;DHT22;10637;47.970;7.830;2024-02-14T22:04:26;11.60;99.90
20957;DHT22;10637;47.970;7.830;2024-02-14T22:09:28;11.60;99.90
20957;DHT22;10637;47.970;7.830;2024-02-14T22:14:29;11.60;99.90
20957;DHT22;10637;47.970;7.830;2024-02-14T22:19:31;11.90;99.90
20957;DHT22;10637;47.970;7.830;2024-02-14T22:24:38;12.20;99.90
20957;DHT22;10637;47.970;7.830;2024-02-14T22:29:40;12.50;99.90
20957;DHT22;10637;47.970;7.830;2024-02-14T22:34:42;12.40;99.90
20957;DHT22;10637;47.970;7.830;2024-02-14T22:39:44;12.20;99.90
20957;DHT22;10637;47.970;7.830;2024-02-14T22:44:46;12.20;99.90
20957;DHT22;10637;47.970;7.830;2024-02-14T22:49:48;12.00;99.90
20957;DHT22;10637;47.970;7.830;2024-02-14T22:54:50;12.00;99.90
20957;DHT22;10637;47.970;7.830;2024-02-14T22:59:52;11.90;99.90
20957;DHT22;10637;47.970;7.830;2024-02-14T23:04:54;11.60;99.90
20957;DHT22;10637;47.970;7.830;2024-02-14T23:09:58;11.40;99.90
20957;DHT22;10637;47.970;7.830;2024-02-14T23:15:00;11.20;99.90
20957;DHT22;10637;47.970;7.830;2024-02-14T23:20:03;11.00;99.90
20957;DHT22;10637;47.970;7.830;2024-02-14T23:25:08;10.80;99.90
20957;DHT22;10637;47.970;7.830;2024-02-14T23:30:12;10.70;99.90
20957;DHT22;10637;47.970;7.830;2024-02-14T23:35:17;10.50;99.90
20957;DHT22;10637;47.970;7.830;2024-02-14T23:40:19;10.20;99.90
20957;DHT22;10637;47.970;7.830;2024-02-14T23:45:21;10.00;99.90
20957;DHT22;10637;47.970;7.830;2024-02-14T23:50:23;10.00;99.90
20957;DHT22;10637;47.970;7.830;2024-02-14T23:55:26;9.90;99.90
